createdAt,value
2022-12-27T00:01:12.474Z,102116.25
2022-12-27T00:04:13.995Z,102111.19
2022-12-27T00:07:15.475Z,102116.81
2022-12-27T00:10:16.915Z,102110.00
2022-12-27T00:13:18.493Z,102105.84
2022-12-27T00:16:21.102Z,102107.63
2022-12-27T00:19:22.612Z,102109.53
2022-12-27T00:22:24.165Z,102097.16
2022-12-27T00:25:25.611Z,102106.78
2022-12-27T00:28:29.869Z,102106.00
2022-12-27T00:31:31.934Z,102107.69
2022-12-27T00:34:33.423Z,102118.31
2022-12-27T00:37:34.874Z,102107.03
2022-12-27T00:40:39.636Z,102107.84
2022-12-27T00:43:41.354Z,102112.06
2022-12-27T00:46:42.826Z,102121.44
2022-12-27T00:49:44.305Z,102119.66
2022-12-27T00:52:45.785Z,102119.91
2022-12-27T00:55:47.242Z,102121.91
2022-12-27T00:58:53.088Z,102111.47
2022-12-27T01:01:54.672Z,102114.06
2022-12-27T01:04:56.242Z,102132.72
2022-12-27T01:07:58.403Z,102143.22
2022-12-27T01:10:59.944Z,102144.16
2022-12-27T01:14:04.023Z,102144.94
2022-12-27T01:17:05.481Z,102141.13
2022-12-27T01:20:07.731Z,102149.06
2022-12-27T01:23:09.234Z,102155.91
2022-12-27T01:26:13.954Z,102160.16
2022-12-27T01:29:15.528Z,102161.88
2022-12-27T01:32:17.067Z,102164.38
2022-12-27T01:35:18.541Z,102157.31
2022-12-27T01:38:20.081Z,102169.41
2022-12-27T01:41:28.566Z,102177.47
2022-12-27T01:44:39.205Z,102184.38
2022-12-27T01:47:52.514Z,102191.31
2022-12-27T01:51:04.572Z,102181.19
2022-12-27T01:54:06.617Z,102188.00
2022-12-27T01:57:08.192Z,102187.84
2022-12-27T02:00:11.597Z,102201.78
2022-12-27T02:03:19.397Z,102194.09
2022-12-27T02:06:22.660Z,102197.31
2022-12-27T02:09:42.181Z,102205.00
2022-12-27T02:12:43.667Z,102207.19
2022-12-27T02:15:45.098Z,102210.84
2022-12-27T02:18:47.223Z,102215.31
2022-12-27T02:22:07.094Z,102216.84
2022-12-27T02:25:18.789Z,102210.47
2022-12-27T02:28:45.079Z,102220.06
2022-12-27T02:32:03.694Z,102216.81
2022-12-27T02:35:18.414Z,102225.84
2022-12-27T02:38:30.948Z,102232.97
2022-12-27T02:41:35.089Z,102237.34
2022-12-27T02:44:36.582Z,102237.25
2022-12-27T02:47:38.755Z,102243.19
2022-12-27T02:51:09.264Z,102244.81
2022-12-27T02:54:28.879Z,102241.28
2022-12-27T02:57:45.640Z,102248.22
2022-12-27T03:01:01.812Z,102241.50
2022-12-27T03:04:21.255Z,102243.13
2022-12-27T03:07:46.192Z,102239.31
2022-12-27T03:11:05.522Z,102240.00
2022-12-27T03:14:26.471Z,102244.38
2022-12-27T03:17:41.881Z,102245.69
2022-12-27T03:20:45.658Z,102249.66
2022-12-27T03:23:50.860Z,102253.81
2022-12-27T03:26:53.231Z,102258.81
2022-12-27T03:29:57.365Z,102258.47
2022-12-27T03:33:05.522Z,102267.78
2022-12-27T03:36:23.736Z,102264.13
2022-12-27T03:39:38.011Z,102266.31
2022-12-27T03:42:49.166Z,102269.06
2022-12-27T03:45:57.792Z,102263.72
2022-12-27T03:49:20.723Z,102269.75
2022-12-27T03:52:27.817Z,102276.13
2022-12-27T03:55:33.323Z,102267.94
2022-12-27T03:58:35.120Z,102266.44
2022-12-27T04:01:36.665Z,102267.41
2022-12-27T04:04:38.322Z,102278.78
2022-12-27T04:07:40.095Z,102274.06
2022-12-27T04:10:41.594Z,102276.13
2022-12-27T04:13:43.044Z,102278.75
2022-12-27T04:16:44.493Z,102279.91
2022-12-27T04:19:46.240Z,102280.03
2022-12-27T04:22:47.815Z,102276.78
2022-12-27T04:25:49.933Z,102276.91
2022-12-27T04:28:51.695Z,102280.03
2022-12-27T04:31:53.156Z,102272.59
2022-12-27T04:34:54.660Z,102277.56
2022-12-27T04:37:56.109Z,102282.34
2022-12-27T04:40:57.594Z,102291.09
2022-12-27T04:43:59.160Z,102290.97
2022-12-27T04:47:00.750Z,102283.66
2022-12-27T04:50:04.201Z,102289.53
2022-12-27T04:53:13.571Z,102284.63
2022-12-27T04:56:15.045Z,102286.47
2022-12-27T04:59:16.508Z,102296.41
2022-12-27T05:02:19.024Z,102297.63
2022-12-27T05:05:21.823Z,102300.25
2022-12-27T05:08:23.291Z,102311.34
2022-12-27T05:11:25.520Z,102304.44
2022-12-27T05:14:26.916Z,102311.66
2022-12-27T05:17:29.992Z,102321.25
2022-12-27T05:20:34.063Z,102321.94
2022-12-27T05:23:35.769Z,102319.28
2022-12-27T05:26:37.623Z,102319.53
2022-12-27T05:29:39.183Z,102312.72
2022-12-27T05:32:40.707Z,102311.88
2022-12-27T05:35:42.235Z,102316.38
2022-12-27T05:38:44.093Z,102319.81
2022-12-27T05:41:45.614Z,102323.00
2022-12-27T05:44:47.088Z,102325.31
2022-12-27T05:47:48.562Z,102321.53
2022-12-27T05:50:51.027Z,102321.28
2022-12-27T05:53:52.481Z,102325.34
2022-12-27T05:56:54.027Z,102332.59
2022-12-27T05:59:55.564Z,102329.28
2022-12-27T06:02:57.169Z,102334.03
2022-12-27T06:06:03.879Z,102334.09
2022-12-27T06:09:05.365Z,102330.81
2022-12-27T06:12:06.992Z,102338.13
2022-12-27T06:15:08.984Z,102345.25
2022-12-27T06:18:10.471Z,102352.75
2022-12-27T06:21:17.670Z,102367.53
2022-12-27T06:24:19.191Z,102357.59
2022-12-27T06:27:20.640Z,102362.44
2022-12-27T06:30:22.220Z,102365.66
2022-12-27T06:33:23.744Z,102360.19
2022-12-27T06:36:26.186Z,102368.69
2022-12-27T06:39:27.607Z,102367.06
2022-12-27T06:42:30.166Z,102373.81
2022-12-27T06:45:31.596Z,102373.50
2022-12-27T06:48:33.408Z,102376.78
2022-12-27T06:51:34.829Z,102380.09
2022-12-27T06:54:36.295Z,102380.09
2022-12-27T06:57:37.812Z,102394.63
2022-12-27T07:00:41.695Z,102390.44
2022-12-27T07:03:43.184Z,102394.81
2022-12-27T07:06:44.629Z,102389.63
2022-12-27T07:09:46.086Z,102402.31
2022-12-27T07:12:47.517Z,102396.00
2022-12-27T07:15:49.011Z,102397.84
2022-12-27T07:18:52.209Z,102399.38
2022-12-27T07:21:53.652Z,102399.94
2022-12-27T07:24:55.242Z,102404.22
2022-12-27T07:27:56.763Z,102399.66
2022-12-27T07:30:59.277Z,102399.47
2022-12-27T07:34:04.505Z,102404.31
2022-12-27T07:37:06.177Z,102410.25
2022-12-27T07:40:08.220Z,102410.56
2022-12-27T07:43:09.701Z,102410.44
2022-12-27T07:46:17.193Z,102412.72
2022-12-27T07:49:18.657Z,102414.78
2022-12-27T07:52:20.248Z,102427.69
2022-12-27T07:55:21.758Z,102429.06
2022-12-27T07:58:24.740Z,102421.63
2022-12-27T08:01:28.876Z,102422.16
2022-12-27T08:04:32.343Z,102426.59
2022-12-27T08:07:33.917Z,102435.84
2022-12-27T08:10:35.497Z,102432.25
2022-12-27T08:13:37.336Z,102443.38
2022-12-27T08:16:38.845Z,102442.28
2022-12-27T08:19:40.356Z,102437.19
2022-12-27T08:22:41.772Z,102435.72
2022-12-27T08:25:48.490Z,102436.91
2022-12-27T08:28:50.626Z,102437.81
2022-12-27T08:31:52.129Z,102435.78
2022-12-27T08:34:53.645Z,102438.25
2022-12-27T08:37:55.100Z,102436.56
2022-12-27T08:40:56.612Z,102439.03
2022-12-27T08:43:58.074Z,102447.69
2022-12-27T08:46:59.567Z,102442.47
2022-12-27T08:50:01.302Z,102446.97
2022-12-27T08:53:04.401Z,102439.22
2022-12-27T08:56:06.117Z,102436.75
2022-12-27T08:59:07.593Z,102435.84
2022-12-27T09:02:10.945Z,102437.00
2022-12-27T09:05:12.419Z,102438.97
2022-12-27T09:08:13.873Z,102443.50
2022-12-27T09:11:20.942Z,102448.88
2022-12-27T09:14:22.581Z,102439.41
2022-12-27T09:17:24.078Z,102443.91
2022-12-27T09:20:25.587Z,102444.72
2022-12-27T09:23:27.090Z,102468.06
2022-12-27T09:26:30.477Z,102461.88
2022-12-27T09:29:32.004Z,102462.66
2022-12-27T09:32:34.232Z,102463.53
2022-12-27T09:35:38.649Z,102462.66
2022-12-27T09:38:42.419Z,102455.72
2022-12-27T09:45:25.562Z,102459.72
2022-12-27T09:48:33.845Z,102452.41
2022-12-27T09:51:50.963Z,102463.78
2022-12-27T09:55:14.296Z,102464.22
2022-12-27T09:58:36.831Z,102472.72
2022-12-27T10:01:38.393Z,102477.88
2022-12-27T10:05:18.078Z,102469.19
2022-12-27T10:08:39.027Z,102479.91
2022-12-27T10:12:04.443Z,102478.66
2022-12-27T10:15:28.518Z,102479.28
2022-12-27T10:18:57.832Z,102477.19
2022-12-27T10:22:05.758Z,102473.34
2022-12-27T10:25:16.489Z,102477.09
2022-12-27T10:28:24.234Z,102471.44
2022-12-27T10:31:27.188Z,102476.41
2022-12-27T10:34:29.056Z,102474.22
2022-12-27T10:37:30.507Z,102468.88
2022-12-27T10:40:39.903Z,102459.19
2022-12-27T10:43:43.450Z,102452.63
2022-12-27T10:46:52.139Z,102463.72
2022-12-27T10:50:12.536Z,102468.03
2022-12-27T10:53:36.902Z,102461.59
2022-12-27T10:56:40.447Z,102458.13
2022-12-27T10:59:41.916Z,102454.56
2022-12-27T11:02:58.454Z,102465.25
2022-12-27T11:06:02.755Z,102464.13
2022-12-27T11:09:25.437Z,102463.31
2022-12-27T11:12:27.685Z,102465.81
2022-12-27T11:15:33.564Z,102472.22
2022-12-27T11:18:36.431Z,102471.50
2022-12-27T11:21:39.537Z,102467.03
2022-12-27T11:24:49.993Z,102460.25
2022-12-27T11:28:04.210Z,102457.28
2022-12-27T11:31:12.759Z,102452.59
2022-12-27T11:34:43.788Z,102444.06
2022-12-27T11:37:47.108Z,102447.69
2022-12-27T11:40:58.631Z,102453.69
2022-12-27T11:44:10.037Z,102448.06
2022-12-27T11:47:30.710Z,102440.78
2022-12-27T11:50:51.131Z,102429.72
2022-12-27T11:54:16.867Z,102434.09
2022-12-27T11:57:48.142Z,102437.59
2022-12-27T12:01:07.950Z,102441.06
2022-12-27T12:04:37.518Z,102428.88
2022-12-27T12:07:39.076Z,102434.03
2022-12-27T12:11:04.187Z,102415.56
2022-12-27T12:14:14.972Z,102416.53
2022-12-27T12:17:45.720Z,102402.53
2022-12-27T12:21:21.265Z,102394.84
2022-12-27T12:24:31.833Z,102400.97
2022-12-27T12:27:55.906Z,102378.53
2022-12-27T12:31:26.153Z,102382.13
2022-12-27T12:34:56.850Z,102373.63
2022-12-27T12:38:12.856Z,102363.28
2022-12-27T12:41:48.552Z,102361.63
2022-12-27T12:44:53.075Z,102354.56
2022-12-27T12:48:13.181Z,102344.94
2022-12-27T12:52:01.371Z,102334.47
2022-12-27T12:55:27.353Z,102328.44
2022-12-27T12:58:31.740Z,102330.31
2022-12-27T13:02:04.467Z,102319.78
2022-12-27T13:05:18.309Z,102310.06
2022-12-27T13:08:41.202Z,102310.03
2022-12-27T13:11:54.198Z,102313.47
2022-12-27T13:15:18.739Z,102309.78
2022-12-27T13:19:04.826Z,102309.72
2022-12-27T13:22:21.269Z,102313.00
2022-12-27T13:25:38.409Z,102306.81
2022-12-27T13:29:17.774Z,102300.63
2022-12-27T13:32:46.220Z,102295.38
2022-12-27T13:35:56.692Z,102284.84
2022-12-27T13:39:25.798Z,102273.44
2022-12-27T13:43:19.677Z,102277.03
2022-12-27T13:46:27.408Z,102263.03
2022-12-27T13:49:49.210Z,102258.56
2022-12-27T13:52:59.728Z,102248.88
2022-12-27T14:00:11.862Z,102236.56
2022-12-27T14:03:32.380Z,102241.88
2022-12-27T14:06:33.965Z,102227.91
2022-12-27T14:09:44.506Z,102223.59
2022-12-27T14:12:54.404Z,102222.81
2022-12-27T14:16:02.017Z,102224.50
2022-12-27T14:19:22.396Z,102225.34
2022-12-27T14:22:35.637Z,102224.41
2022-12-27T14:25:37.191Z,102226.16
2022-12-27T14:29:00.601Z,102212.25
2022-12-27T14:32:10.881Z,102219.28
2022-12-27T14:35:24.680Z,102219.25
2022-12-27T14:38:32.209Z,102210.63
2022-12-27T14:42:15.083Z,102207.03
2022-12-27T14:45:41.630Z,102210.44
2022-12-27T14:49:25.786Z,102204.28
2022-12-27T14:53:13.555Z,102219.91
2022-12-27T14:56:24.684Z,102211.06
2022-12-27T14:59:47.976Z,102210.16
2022-12-27T15:03:14.566Z,102213.63
2022-12-27T15:06:56.843Z,102214.47
2022-12-27T15:10:05.038Z,102212.63
2022-12-27T15:13:16.752Z,102203.88
2022-12-27T15:16:49.302Z,102213.50
2022-12-27T15:20:23.338Z,102212.50
2022-12-27T15:23:36.898Z,102222.00
2022-12-27T15:27:05.714Z,102207.94
2022-12-27T15:30:22.610Z,102211.41
2022-12-27T15:33:30.185Z,102216.69
2022-12-27T15:36:44.419Z,102218.53
2022-12-27T15:39:47.774Z,102207.22
2022-12-27T15:42:58.731Z,102206.31
2022-12-27T15:46:06.182Z,102202.78
2022-12-27T15:49:32.572Z,102199.38
2022-12-27T15:52:46.034Z,102201.09
2022-12-27T15:56:20.861Z,102202.91
2022-12-27T15:59:43.460Z,102188.91
2022-12-27T16:02:48.085Z,102196.00
2022-12-27T16:05:52.541Z,102189.88
2022-12-27T16:09:18.274Z,102185.53
2022-12-27T16:12:39.066Z,102176.84
2022-12-27T16:15:43.615Z,102182.06
2022-12-27T16:19:11.234Z,102188.16
2022-12-27T16:22:25.471Z,102189.94
2022-12-27T16:25:33.260Z,102183.84
2022-12-27T16:28:37.213Z,102180.31
2022-12-27T16:31:45.767Z,102164.63
2022-12-27T16:34:50.911Z,102168.06
2022-12-27T16:37:54.638Z,102160.22
2022-12-27T16:41:13.336Z,102147.00
2022-12-27T16:44:14.778Z,102143.41
2022-12-27T16:47:56.213Z,102138.06
2022-12-27T16:51:16.830Z,102133.69
2022-12-27T16:54:47.837Z,102140.63
2022-12-27T16:57:50.357Z,102142.34
2022-12-27T17:00:54.926Z,102129.25
2022-12-27T17:03:57.790Z,102131.00
2022-12-27T17:06:59.506Z,102129.22
2022-12-27T17:10:42.134Z,102131.91
2022-12-27T17:13:50.949Z,102123.38
2022-12-27T17:16:58.464Z,102125.22
2022-12-27T17:20:04.961Z,102116.56
2022-12-27T17:23:07.783Z,102112.25
2022-12-27T17:26:35.418Z,102113.03
2022-12-27T17:29:52.046Z,102103.38
2022-12-27T17:32:56.455Z,102086.75
2022-12-27T17:35:57.980Z,102085.84
2022-12-27T17:39:21.418Z,102094.72
2022-12-27T17:42:37.680Z,102072.78
2022-12-27T17:45:44.968Z,102061.41
2022-12-27T17:48:46.790Z,102068.31
2022-12-27T17:51:48.603Z,102064.91
2022-12-27T17:54:50.191Z,102057.91
2022-12-27T17:57:54.976Z,102063.13
2022-12-27T18:01:00.798Z,102057.84
2022-12-27T18:04:05.216Z,102059.56
2022-12-27T18:07:10.415Z,102055.25
2022-12-27T18:10:26.787Z,102057.13
2022-12-27T18:13:33.195Z,102040.53
2022-12-27T18:16:39.934Z,102028.25
2022-12-27T18:19:41.647Z,102030.00
2022-12-27T18:22:43.114Z,102020.38
2022-12-27T18:25:44.523Z,102022.03
2022-12-27T18:28:46.146Z,102026.38
2022-12-27T18:31:50.086Z,102008.06
2022-12-27T18:34:58.984Z,102012.38
2022-12-27T18:38:08.264Z,102012.28
2022-12-27T18:41:13.118Z,102010.56
2022-12-27T18:44:23.017Z,102005.31
2022-12-27T18:47:28.607Z,102012.44
2022-12-27T18:50:33.245Z,102001.00
2022-12-27T18:53:37.576Z,101994.81
2022-12-27T18:56:41.381Z,101989.47
2022-12-27T18:59:42.937Z,101983.38
2022-12-27T19:02:45.200Z,101989.44
2022-12-27T19:05:59.974Z,101994.69
2022-12-27T19:09:01.611Z,101983.28
2022-12-27T19:12:06.571Z,101982.31
2022-12-27T19:15:21.169Z,101972.69
2022-12-27T19:18:24.978Z,101977.91
2022-12-27T19:21:38.222Z,101961.47
2022-12-27T19:24:39.925Z,101954.44
2022-12-27T19:27:41.689Z,101952.81
2022-12-27T19:30:46.984Z,101938.84
2022-12-27T19:33:54.803Z,101931.00
2022-12-27T19:36:57.358Z,101929.22
2022-12-27T19:39:59.088Z,101931.91
2022-12-27T19:43:00.630Z,101931.84
2022-12-27T19:46:02.138Z,101924.91
2022-12-27T19:52:26.622Z,101917.16
2022-12-27T19:55:28.155Z,101904.03
2022-12-27T19:58:30.015Z,101892.66
2022-12-27T20:01:31.574Z,101891.00
2022-12-27T20:04:33.206Z,101881.44
2022-12-27T20:07:35.138Z,101875.38
2022-12-27T20:10:36.648Z,101869.34
2022-12-27T20:13:38.130Z,101872.84
2022-12-27T20:16:40.147Z,101862.34
2022-12-27T20:19:41.630Z,101850.16
2022-12-27T20:22:43.194Z,101849.25
2022-12-27T20:25:47.050Z,101839.69
2022-12-27T20:28:48.923Z,101848.44
2022-12-27T20:31:50.443Z,101841.47
2022-12-27T20:34:52.129Z,101843.25
2022-12-27T20:37:53.706Z,101832.78
2022-12-27T20:40:55.238Z,101834.59
2022-12-27T20:43:57.807Z,101844.19
2022-12-27T20:46:59.400Z,101825.00
2022-12-27T20:50:00.969Z,101834.63
2022-12-27T20:53:02.578Z,101831.19
2022-12-27T20:56:05.161Z,101814.63
2022-12-27T20:59:06.838Z,101808.50
2022-12-27T21:02:11.440Z,101804.19
2022-12-27T21:05:13.405Z,101791.09
2022-12-27T21:08:14.990Z,101798.03
2022-12-27T21:11:19.761Z,101794.56
2022-12-27T21:14:21.265Z,101788.47
2022-12-27T21:17:22.828Z,101796.34
2022-12-27T21:20:24.409Z,101773.66
2022-12-27T21:23:25.961Z,101780.66
2022-12-27T21:26:30.791Z,101771.97
2022-12-27T21:29:32.355Z,101756.25
2022-12-27T21:32:33.921Z,101751.84
2022-12-27T21:35:35.436Z,101744.81
2022-12-27T21:38:37.369Z,101734.41
2022-12-27T21:41:39.946Z,101734.41
2022-12-27T21:44:41.657Z,101722.22
2022-12-27T21:47:43.203Z,101741.41
2022-12-27T21:50:44.804Z,101734.47
2022-12-27T21:53:46.763Z,101726.56
2022-12-27T21:56:48.618Z,101730.94
2022-12-27T21:59:50.074Z,101744.00
2022-12-27T22:02:51.714Z,101726.44
2022-12-27T22:05:53.401Z,101728.13
2022-12-27T22:09:01.299Z,101722.78
2022-12-27T22:12:03.489Z,101721.81
2022-12-27T22:15:05.340Z,101723.53
2022-12-27T22:18:06.852Z,101696.44
2022-12-27T22:21:11.042Z,101713.88
2022-12-27T22:24:13.528Z,101713.88
2022-12-27T22:27:15.002Z,101705.16
2022-12-27T22:30:16.563Z,101694.69
2022-12-27T22:33:18.176Z,101690.31
2022-12-27T22:36:22.346Z,101670.28
2022-12-27T22:39:23.843Z,101663.28
2022-12-27T22:42:25.435Z,101646.75
2022-12-27T22:45:27.338Z,101639.75
2022-12-27T22:48:28.809Z,101631.91
2022-12-27T22:51:35.479Z,101629.28
2022-12-27T22:55:04.761Z,101619.69
2022-12-27T22:57:58.460Z,101611.91
2022-12-27T23:00:59.937Z,101610.16
2022-12-27T23:04:03.758Z,101600.53
2022-12-27T23:07:05.353Z,101598.78
2022-12-27T23:10:07.346Z,101596.19
2022-12-27T23:13:08.859Z,101592.69
2022-12-27T23:16:10.602Z,101580.50
2022-12-27T23:19:13.802Z,101589.16
2022-12-27T23:22:15.402Z,101584.78
2022-12-27T23:25:16.921Z,101574.31
2022-12-27T23:28:18.549Z,101572.59
2022-12-27T23:31:21.746Z,101555.19
2022-12-27T23:34:28.247Z,101556.91
2022-12-27T23:37:30.398Z,101543.88
2022-12-27T23:40:31.959Z,101528.16
2022-12-27T23:43:53.961Z,101500.22
2022-12-27T23:46:56.710Z,101488.03
2022-12-27T23:49:58.302Z,101485.44
2022-12-27T23:52:59.819Z,101474.09
2022-12-27T23:56:07.901Z,101475.81
2022-12-27T23:59:09.526Z,101465.38
